Time;durP1;ratioP1;P1;durP2;ratioP2;P2;SDS_P1;SDS_P2;PMS_P1;PMS_P2;Temp;Humidity;BMP_temperature;BMP_pressure;BME280_temperature;BME280_humidity;BME280_pressure;Samples;Min_cycle;Max_cycle;Signal;HPM_P1;HPM_P2
2024/01/01 00:00:40;;;;;;;97.40;34.50;;;;;;;;;;5049616;28;20704;-80
2024/01/01 00:03:27;;;;;;;118.40;30.03;;;;;;;;;;5030264;28;20244;-79
2024/01/01 00:05:54;;;;;;;48.77;18.10;;;;;;;;;;5029687;28;20232;-79
2024/01/01 00:08:22;;;;;;;53.90;18.10;;;;;;;;;;5044364;28;20239;-79
2024/01/01 00:10:49;;;;;;;49.47;21.97;;;;;;;;;;5049276;28;20305;-80
2024/01/01 00:13:16;;;;;;;39.63;15.90;;;;;;;;;;5050602;28;20231;-80
2024/01/01 00:15:43;;;;;;;125.83;30.37;;;;;;;;;;5050656;28;20265;-79
2024/01/01 00:18:10;;;;;;;102.40;28.03;;;;;;;;;;5051096;28;20215;-79
2024/01/01 00:20:37;;;;;;;101.13;34.50;;;;;;;;;;5054771;28;20215;-81
2024/01/01 00:23:04;;;;;;;59.97;21.97;;;;;;;;;;5054894;28;20222;-82
2024/01/01 00:25:35;;;;;;;51.67;18.07;;;;;;;;;;5054610;28;20653;-81
2024/01/01 00:28:06;;;;;;;50.10;18.93;;;;;;;;;;5054645;28;20204;-81
2024/01/01 00:30:34;;;;;;;43.37;17.73;;;;;;;;;;5055094;28;20246;-81
2024/01/01 00:33:01;;;;;;;42.73;18.37;;;;;;;;;;5037226;28;20291;-81
2024/01/01 00:35:29;;;;;;;35.03;15.67;;;;;;;;;;5054625;28;20200;-81
2024/01/01 00:37:56;;;;;;;27.27;14.50;;;;;;;;;;5053320;28;20235;-81
2024/01/01 00:40:23;;;;;;;28.63;14.13;;;;;;;;;;5054752;28;20207;-81
2024/01/01 00:42:50;;;;;;;26.10;12.97;;;;;;;;;;5054460;28;20315;-82
2024/01/01 00:45:17;;;;;;;26.07;13.53;;;;;;;;;;5054400;28;20257;-81
2024/01/01 00:47:45;;;;;;;26.73;13.47;;;;;;;;;;5054332;28;20215;-81
2024/01/01 00:50:13;;;;;;;39.17;15.47;;;;;;;;;;5054210;28;20243;-81
2024/01/01 00:52:39;;;;;;;32.67;14.67;;;;;;;;;;5054626;28;20652;-81
2024/01/01 00:55:07;;;;;;;31.83;15.60;;;;;;;;;;5053544;28;20274;-81
2024/01/01 00:57:34;;;;;;;29.27;14.03;;;;;;;;;;5053068;28;20200;-81
2024/01/01 01:00:01;;;;;;;30.93;14.73;;;;;;;;;;5054207;28;20204;-81
2024/01/01 01:02:28;;;;;;;28.97;14.97;;;;;;;;;;5053455;28;20203;-81
2024/01/01 01:04:56;;;;;;;32.53;15.03;;;;;;;;;;5054581;28;20208;-81
2024/01/01 01:07:32;;;;;;;47.77;18.90;;;;;;;;;;5054979;28;20219;-81
2024/01/01 01:10:00;;;;;;;52.60;17.83;;;;;;;;;;5055114;28;20235;-80
2024/01/01 01:12:26;;;;;;;38.93;16.43;;;;;;;;;;5054313;28;20212;-78
2024/01/01 01:14:54;;;;;;;56.53;25.10;;;;;;;;;;5053685;28;20204;-77
2024/01/01 01:17:21;;;;;;;29.67;15.50;;;;;;;;;;5054192;28;20208;-77
2024/01/01 01:19:48;;;;;;;36.93;17.77;;;;;;;;;;5052754;28;20207;-80
2024/01/01 01:22:15;;;;;;;43.70;18.13;;;;;;;;;;5052884;28;20222;-81
2024/01/01 01:24:42;;;;;;;44.40;20.20;;;;;;;;;;5053967;28;20200;-80
2024/01/01 01:27:09;;;;;;;44.20;20.83;;;;;;;;;;5052261;28;20286;-80
2024/01/01 01:29:36;;;;;;;38.13;18.23;;;;;;;;;;5053884;28;20231;-81
2024/01/01 01:32:04;;;;;;;44.37;18.73;;;;;;;;;;5052644;28;20277;-81
2024/01/01 01:34:31;;;;;;;38.57;18.00;;;;;;;;;;5053906;28;20258;-77
2024/01/01 01:36:58;;;;;;;33.13;16.77;;;;;;;;;;5053665;28;20204;-80
2024/01/01 01:39:25;;;;;;;45.63;18.70;;;;;;;;;;5053929;28;20208;-81
2024/01/01 01:41:52;;;;;;;35.57;16.57;;;;;;;;;;5052159;28;20204;-81
2024/01/01 01:44:19;;;;;;;95.77;27.40;;;;;;;;;;5051637;28;20238;-80
2024/01/01 01:46:46;;;;;;;56.07;21.50;;;;;;;;;;5053075;28;20220;-81
2024/01/01 01:49:14;;;;;;;42.90;17.20;;;;;;;;;;5052008;28;20203;-80
2024/01/01 01:51:41;;;;;;;39.20;15.27;;;;;;;;;;5052055;28;20211;-81
2024/01/01 01:54:08;;;;;;;28.77;14.97;;;;;;;;;;5052046;28;20196;-81
2024/01/01 01:56:35;;;;;;;49.63;17.67;;;;;;;;;;5052118;28;20204;-81
2024/01/01 01:59:03;;;;;;;35.57;16.93;;;;;;;;;;5051548;28;20789;-81
2024/01/01 02:01:31;;;;;;;40.50;16.87;;;;;;;;;;5051876;28;20287;-81
2024/01/01 02:03:58;;;;;;;27.10;14.83;;;;;;;;;;5051785;28;20204;-81
2024/01/01 02:06:25;;;;;;;32.03;16.20;;;;;;;;;;5051640;28;20204;-81
2024/01/01 02:08:54;;;;;;;35.97;17.13;;;;;;;;;;5051691;28;20199;-81
2024/01/01 02:11:21;;;;;;;29.97;15.03;;;;;;;;;;5051672;28;20224;-81
2024/01/01 02:13:49;;;;;;;33.40;15.73;;;;;;;;;;5051485;28;20211;-80
2024/01/01 02:16:16;;;;;;;32.10;14.50;;;;;;;;;;5051486;28;20258;-82
2024/01/01 02:18:43;;;;;;;29.90;13.67;;;;;;;;;;5051892;28;20214;-81
2024/01/01 02:21:11;;;;;;;26.13;13.60;;;;;;;;;;5053177;28;20283;-82
2024/01/01 02:23:38;;;;;;;26.63;14.07;;;;;;;;;;5053004;28;20204;-82
2024/01/01 02:26:07;;;;;;;27.20;13.47;;;;;;;;;;5053025;28;20204;-81
2024/01/01 02:28:35;;;;;;;30.07;13.83;;;;;;;;;;5053329;28;20258;-77
2024/01/01 02:31:02;;;;;;;27.77;13.57;;;;;;;;;;5052631;28;20318;-79
2024/01/01 02:33:30;;;;;;;28.47;13.40;;;;;;;;;;5051456;28;20206;-81
2024/01/01 02:35:57;;;;;;;33.50;15.13;;;;;;;;;;5051357;28;20207;-81
2024/01/01 02:38:24;;;;;;;35.37;15.67;;;;;;;;;;5051323;28;20202;-80
2024/01/01 02:40:51;;;;;;;33.20;15.20;;;;;;;;;;5050923;28;20557;-80
2024/01/01 02:43:18;;;;;;;31.60;17.27;;;;;;;;;;5051971;28;20612;-80
2024/01/01 02:45:45;;;;;;;48.03;18.77;;;;;;;;;;5034756;28;21028;-82
2024/01/01 02:48:13;;;;;;;32.07;14.37;;;;;;;;;;5052483;28;20542;-81
2024/01/01 02:50:40;;;;;;;31.43;15.07;;;;;;;;;;5052328;28;20227;-81
2024/01/01 02:53:07;;;;;;;33.47;15.13;;;;;;;;;;5052218;28;20199;-81
2024/01/01 02:55:34;;;;;;;35.27;14.63;;;;;;;;;;5052243;28;20223;-81
2024/01/01 02:58:03;;;;;;;32.17;15.33;;;;;;;;;;5052196;28;20219;-82
2024/01/01 03:00:31;;;;;;;28.20;14.63;;;;;;;;;;5052096;28;20234;-82
2024/01/01 03:02:58;;;;;;;28.47;14.13;;;;;;;;;;5052110;28;20199;-82
2024/01/01 03:05:27;;;;;;;29.87;15.23;;;;;;;;;;5052184;28;20203;-81
2024/01/01 03:07:55;;;;;;;31.80;14.50;;;;;;;;;;5050711;28;20208;-81
2024/01/01 03:10:22;;;;;;;27.73;13.30;;;;;;;;;;5050558;28;20285;-81
2024/01/01 03:12:49;;;;;;;28.83;14.80;;;;;;;;;;5050787;28;20207;-81
2024/01/01 03:15:16;;;;;;;32.77;15.03;;;;;;;;;;5050445;28;20204;-80
2024/01/01 03:17:45;;;;;;;26.60;14.13;;;;;;;;;;5051582;28;20212;-79
2024/01/01 03:20:12;;;;;;;32.33;14.60;;;;;;;;;;5050277;28;20211;-80
2024/01/01 03:22:41;;;;;;;30.73;14.57;;;;;;;;;;5051749;28;20192;-79
2024/01/01 03:25:09;;;;;;;27.43;14.60;;;;;;;;;;5051597;28;20231;-81
2024/01/01 03:27:37;;;;;;;29.10;13.50;;;;;;;;;;5034268;28;20205;-80
2024/01/01 03:30:08;;;;;;;28.60;14.03;;;;;;;;;;5050317;28;20662;-80
2024/01/01 03:32:36;;;;;;;28.70;13.53;;;;;;;;;;5052382;28;20203;-80
2024/01/01 03:35:04;;;;;;;34.00;14.50;;;;;;;;;;5052192;28;20212;-80
2024/01/01 03:37:32;;;;;;;34.67;16.07;;;;;;;;;;5051787;28;20226;-81
2024/01/01 03:39:59;;;;;;;29.53;15.27;;;;;;;;;;5051560;28;20277;-80
2024/01/01 03:42:26;;;;;;;26.90;14.07;;;;;;;;;;5050151;28;20322;-80
2024/01/01 03:44:53;;;;;;;26.03;14.57;;;;;;;;;;5051848;28;20211;-82
2024/01/01 03:47:20;;;;;;;29.57;14.03;;;;;;;;;;5051694;28;20250;-81
2024/01/01 03:49:52;;;;;;;30.33;14.20;;;;;;;;;;5051646;28;20232;-81
2024/01/01 03:52:19;;;;;;;33.60;14.37;;;;;;;;;;5051323;28;20200;-81
2024/01/01 03:54:46;;;;;;;27.93;14.60;;;;;;;;;;5052886;28;20239;-80
2024/01/01 03:57:13;;;;;;;31.20;15.77;;;;;;;;;;5054661;28;20201;-78
2024/01/01 03:59:40;;;;;;;33.93;15.83;;;;;;;;;;5054557;28;20208;-80
2024/01/01 04:02:10;;;;;;;47.40;17.07;;;;;;;;;;5053167;28;20216;-80
2024/01/01 04:04:37;;;;;;;34.03;15.70;;;;;;;;;;5054336;28;20208;-79
2024/01/01 04:07:04;;;;;;;32.40;16.60;;;;;;;;;;5052932;28;20659;-79
2024/01/01 04:09:31;;;;;;;37.87;16.33;;;;;;;;;;5053886;28;20582;-80
2024/01/01 04:11:59;;;;;;;31.53;15.13;;;;;;;;;;5052959;28;20715;-80
2024/01/01 04:14:26;;;;;;;32.73;14.97;;;;;;;;;;5053632;28;20207;-79
2024/01/01 04:16:53;;;;;;;32.53;16.07;;;;;;;;;;5054921;28;20215;-78
2024/01/01 04:19:21;;;;;;;38.50;15.80;;;;;;;;;;5055385;28;20200;-80
2024/01/01 04:21:49;;;;;;;34.03;15.53;;;;;;;;;;5054818;28;20664;-79
2024/01/01 04:24:16;;;;;;;33.43;15.40;;;;;;;;;;5054727;28;20216;-80
2024/01/01 04:26:43;;;;;;;31.03;15.60;;;;;;;;;;5054628;28;20204;-80
2024/01/01 04:29:12;;;;;;;34.90;15.57;;;;;;;;;;5055025;28;20204;-81
2024/01/01 04:31:39;;;;;;;29.00;16.30;;;;;;;;;;5054809;28;20228;-80
2024/01/01 04:34:06;;;;;;;32.07;14.87;;;;;;;;;;5054425;28;20192;-80
2024/01/01 04:36:33;;;;;;;32.63;15.80;;;;;;;;;;5054657;28;20208;-80
2024/01/01 04:39:03;;;;;;;30.17;15.13;;;;;;;;;;5053597;28;20261;-80
2024/01/01 04:41:30;;;;;;;33.00;15.23;;;;;;;;;;5054705;28;20207;-78
2024/01/01 04:43:57;;;;;;;29.30;15.23;;;;;;;;;;5054691;28;20274;-80
2024/01/01 04:46:25;;;;;;;33.23;16.30;;;;;;;;;;5054532;28;20192;-80
2024/01/01 04:48:51;;;;;;;32.70;16.33;;;;;;;;;;5054383;28;20207;-81
2024/01/01 04:51:19;;;;;;;34.33;17.10;;;;;;;;;;5054147;28;20587;-80
2024/01/01 04:53:51;;;;;;;37.10;15.40;;;;;;;;;;5054061;28;20215;-81
2024/01/01 04:56:21;;;;;;;32.87;14.73;;;;;;;;;;5053996;28;20206;-81
2024/01/01 04:58:48;;;;;;;49.93;20.10;;;;;;;;;;5054233;28;20227;-80
2024/01/01 05:01:15;;;;;;;31.27;16.10;;;;;;;;;;5054183;28;20200;-80
2024/01/01 05:03:42;;;;;;;36.00;16.93;;;;;;;;;;5054266;28;20210;-81
2024/01/01 05:06:09;;;;;;;32.20;15.17;;;;;;;;;;5054082;28;20530;-80
2024/01/01 05:08:36;;;;;;;29.57;14.70;;;;;;;;;;5053998;28;20204;-80
2024/01/01 05:11:04;;;;;;;35.90;15.33;;;;;;;;;;5053558;28;20228;-81
2024/01/01 05:13:31;;;;;;;32.97;14.70;;;;;;;;;;5054177;28;20273;-81
2024/01/01 05:15:59;;;;;;;32.23;15.77;;;;;;;;;;5053830;28;20205;-81
2024/01/01 05:18:27;;;;;;;29.17;14.67;;;;;;;;;;5052747;28;20192;-81
2024/01/01 05:20:54;;;;;;;30.37;14.13;;;;;;;;;;5053465;28;20212;-80
2024/01/01 05:23:22;;;;;;;35.43;14.77;;;;;;;;;;5053862;28;20207;-81
2024/01/01 05:25:49;;;;;;;29.23;14.27;;;;;;;;;;5053718;28;20192;-81
2024/01/01 05:28:16;;;;;;;28.47;14.87;;;;;;;;;;5052395;28;20664;-81
2024/01/01 05:30:44;;;;;;;32.77;14.83;;;;;;;;;;5053576;28;20228;-81
2024/01/01 05:33:11;;;;;;;33.30;14.30;;;;;;;;;;5054035;28;20216;-81
2024/01/01 05:35:39;;;;;;;29.13;14.07;;;;;;;;;;5054220;28;20702;-81
2024/01/01 05:38:06;;;;;;;28.03;15.00;;;;;;;;;;5053352;28;20208;-80
2024/01/01 05:40:33;;;;;;;32.47;14.57;;;;;;;;;;5053753;28;20609;-81
2024/01/01 05:43:00;;;;;;;27.43;14.13;;;;;;;;;;5053330;28;20278;-81
2024/01/01 05:45:28;;;;;;;34.33;15.53;;;;;;;;;;5053350;28;20199;-80
2024/01/01 05:47:54;;;;;;;25.47;14.13;;;;;;;;;;5053652;28;20199;-81
2024/01/01 05:50:23;;;;;;;31.10;14.10;;;;;;;;;;5053047;28;20212;-80
2024/01/01 05:52:50;;;;;;;27.07;14.60;;;;;;;;;;5053344;28;20212;-81
2024/01/01 05:55:17;;;;;;;30.77;13.83;;;;;;;;;;5053103;28;20208;-81
2024/01/01 05:57:44;;;;;;;32.17;14.53;;;;;;;;;;5053635;28;20735;-80
2024/01/01 06:00:12;;;;;;;27.87;14.27;;;;;;;;;;5053608;28;20200;-77
2024/01/01 06:02:39;;;;;;;29.90;14.40;;;;;;;;;;5052076;28;20210;-80
2024/01/01 06:05:07;;;;;;;27.87;13.77;;;;;;;;;;5053016;28;20208;-80
2024/01/01 06:07:34;;;;;;;35.97;14.57;;;;;;;;;;5053015;28;20208;-79
2024/01/01 06:10:01;;;;;;;36.10;14.90;;;;;;;;;;5052758;28;20528;-80
2024/01/01 06:12:29;;;;;;;33.13;14.37;;;;;;;;;;5052746;28;20227;-80
2024/01/01 06:14:56;;;;;;;32.97;13.80;;;;;;;;;;5052768;28;20204;-80
2024/01/01 06:17:23;;;;;;;30.40;14.43;;;;;;;;;;5052018;28;20242;-80
2024/01/01 06:19:50;;;;;;;30.13;14.50;;;;;;;;;;5052009;28;20212;-80
2024/01/01 06:22:18;;;;;;;28.57;14.10;;;;;;;;;;5052242;28;20208;-80
2024/01/01 06:24:45;;;;;;;30.33;14.73;;;;;;;;;;5052525;28;20211;-80
2024/01/01 06:27:12;;;;;;;34.10;14.60;;;;;;;;;;5052589;28;20200;-80
2024/01/01 06:29:39;;;;;;;35.03;15.60;;;;;;;;;;5052688;28;20207;-81
2024/01/01 06:32:06;;;;;;;28.40;14.03;;;;;;;;;;5052288;28;20227;-81
2024/01/01 06:34:34;;;;;;;34.60;14.93;;;;;;;;;;5052218;28;20188;-80
2024/01/01 06:37:00;;;;;;;33.77;14.87;;;;;;;;;;5051801;28;20209;-80
2024/01/01 06:39:28;;;;;;;29.37;14.77;;;;;;;;;;5052180;28;20200;-80
2024/01/01 06:41:55;;;;;;;35.17;14.87;;;;;;;;;;5051996;28;20191;-80
2024/01/01 06:44:25;;;;;;;30.17;14.40;;;;;;;;;;5050987;28;20735;-80
2024/01/01 06:46:52;;;;;;;30.87;14.00;;;;;;;;;;5051009;28;20200;-80
2024/01/01 06:49:19;;;;;;;31.60;15.23;;;;;;;;;;5051652;28;20200;-81
2024/01/01 06:51:52;;;;;;;29.50;13.97;;;;;;;;;;5051327;28;20257;-81
2024/01/01 06:54:19;;;;;;;30.07;15.33;;;;;;;;;;5050314;28;20207;-82
2024/01/01 06:56:46;;;;;;;28.07;15.27;;;;;;;;;;5051119;28;20679;-81
2024/01/01 06:59:14;;;;;;;28.87;14.50;;;;;;;;;;5049790;28;20289;-80
2024/01/01 07:01:42;;;;;;;39.93;15.23;;;;;;;;;;5050825;28;20606;-80
2024/01/01 07:04:10;;;;;;;33.03;14.90;;;;;;;;;;5051175;28;20192;-80
2024/01/01 07:06:37;;;;;;;32.47;15.13;;;;;;;;;;5050869;28;20636;-80
2024/01/01 07:09:05;;;;;;;32.87;15.40;;;;;;;;;;5050734;28;20571;-81
2024/01/01 07:11:32;;;;;;;35.13;15.03;;;;;;;;;;5050657;28;20232;-80
2024/01/01 07:13:59;;;;;;;35.00;15.33;;;;;;;;;;5050417;28;20211;-80
2024/01/01 07:16:27;;;;;;;37.90;15.53;;;;;;;;;;5051009;28;20292;-81
2024/01/01 07:18:54;;;;;;;32.93;14.57;;;;;;;;;;5050953;28;20215;-80
2024/01/01 07:21:21;;;;;;;32.93;16.20;;;;;;;;;;5051063;28;20309;-80
2024/01/01 07:23:49;;;;;;;32.00;15.60;;;;;;;;;;5051000;28;20200;-80
2024/01/01 07:26:16;;;;;;;31.87;15.60;;;;;;;;;;5051017;28;20560;-80
2024/01/01 07:28:43;;;;;;;39.20;15.83;;;;;;;;;;5051595;28;20195;-80
2024/01/01 07:31:11;;;;;;;35.20;16.40;;;;;;;;;;5053435;28;20241;-80
2024/01/01 07:33:38;;;;;;;36.33;16.00;;;;;;;;;;5052881;28;20204;-80
2024/01/01 07:36:10;;;;;;;37.50;16.50;;;;;;;;;;5054137;28;20762;-80
2024/01/01 07:38:40;;;;;;;38.13;16.33;;;;;;;;;;5054663;28;20203;-79
2024/01/01 07:41:07;;;;;;;43.40;16.23;;;;;;;;;;5054252;28;20212;-79
2024/01/01 07:43:34;;;;;;;32.67;15.50;;;;;;;;;;5011205;28;1257000;-78
2024/01/01 07:46:02;;;;;;;35.90;16.40;;;;;;;;;;5055674;28;20266;-79
2024/01/01 07:48:29;;;;;;;38.27;17.50;;;;;;;;;;5055979;28;20656;-78
2024/01/01 07:50:56;;;;;;;34.23;15.87;;;;;;;;;;5055163;28;20219;-79
2024/01/01 07:53:23;;;;;;;35.13;16.17;;;;;;;;;;5055194;28;20208;-80
2024/01/01 07:55:50;;;;;;;39.47;18.40;;;;;;;;;;5055639;28;20246;-80
2024/01/01 07:58:17;;;;;;;41.03;16.60;;;;;;;;;;5054088;28;20208;-79
2024/01/01 08:00:44;;;;;;;38.90;16.40;;;;;;;;;;5055005;28;20672;-80
2024/01/01 08:03:13;;;;;;;43.07;17.77;;;;;;;;;;5055149;28;20249;-80
2024/01/01 08:05:40;;;;;;;43.00;20.17;;;;;;;;;;5053389;28;20192;-81
2024/01/01 08:08:08;;;;;;;46.87;20.30;;;;;;;;;;5054754;28;20200;-79
2024/01/01 08:10:36;;;;;;;66.57;25.53;;;;;;;;;;5054953;28;21083;-83
2024/01/01 08:13:04;;;;;;;137.03;55.57;;;;;;;;;;5042540;28;20259;-80
2024/01/01 08:15:31;;;;;;;514.23;241.80;;;;;;;;;;5051654;28;20868;-81
2024/01/01 08:17:58;;;;;;;319.97;141.83;;;;;;;;;;5053126;28;20254;-80
2024/01/01 08:20:25;;;;;;;368.50;170.87;;;;;;;;;;5040989;28;20711;-80
2024/01/01 08:22:52;;;;;;;547.53;248.57;;;;;;;;;;5050321;28;20223;-80
2024/01/01 08:25:19;;;;;;;464.73;222.03;;;;;;;;;;5052839;28;20255;-79
2024/01/01 08:27:47;;;;;;;178.97;88.40;;;;;;;;;;5052904;28;20240;-79
2024/01/01 08:30:14;;;;;;;190.30;102.67;;;;;;;;;;5053720;28;20243;-79
2024/01/01 08:32:41;;;;;;;34.93;18.57;;;;;;;;;;5053593;28;20270;-80
2024/01/01 08:35:08;;;;;;;59.87;31.53;;;;;;;;;;5054022;28;20227;-79
2024/01/01 08:37:37;;;;;;;36.67;19.10;;;;;;;;;;5053924;28;20259;-79
2024/01/01 08:40:06;;;;;;;34.97;18.13;;;;;;;;;;5053667;28;20239;-80
2024/01/01 08:42:33;;;;;;;40.30;17.70;;;;;;;;;;5052975;28;20235;-80
2024/01/01 08:45:00;;;;;;;42.10;16.83;;;;;;;;;;5053656;28;20742;-80
2024/01/01 08:47:27;;;;;;;38.40;17.37;;;;;;;;;;5053779;28;20301;-80
2024/01/01 08:49:54;;;;;;;40.67;17.60;;;;;;;;;;5052238;28;20294;-80
2024/01/01 08:52:22;;;;;;;38.80;17.67;;;;;;;;;;5053665;28;20228;-80
2024/01/01 08:54:48;;;;;;;37.47;18.40;;;;;;;;;;5053491;28;20228;-80
2024/01/01 08:57:16;;;;;;;35.60;17.00;;;;;;;;;;5053260;28;20228;-79
2024/01/01 08:59:43;;;;;;;38.20;16.67;;;;;;;;;;5053292;28;20314;-79
2024/01/01 09:02:10;;;;;;;38.27;17.83;;;;;;;;;;5053334;28;20243;-79
2024/01/01 09:04:37;;;;;;;36.37;16.63;;;;;;;;;;5053402;28;20689;-80
2024/01/01 09:07:05;;;;;;;39.47;17.50;;;;;;;;;;5053437;28;20239;-80
2024/01/01 09:09:32;;;;;;;48.17;22.03;;;;;;;;;;5053428;28;20235;-79
2024/01/01 09:11:59;;;;;;;41.57;20.07;;;;;;;;;;5052786;28;20293;-80
2024/01/01 09:14:26;;;;;;;48.20;21.63;;;;;;;;;;5053154;28;20252;-80
2024/01/01 09:16:53;;;;;;;67.20;26.87;;;;;;;;;;5053109;28;20274;-80
2024/01/01 09:19:20;;;;;;;39.93;18.13;;;;;;;;;;5053095;28;20282;-80
2024/01/01 09:21:48;;;;;;;33.77;17.97;;;;;;;;;;5053296;28;20220;-79
2024/01/01 09:24:15;;;;;;;43.50;21.17;;;;;;;;;;5052956;28;20232;-79
2024/01/01 09:26:42;;;;;;;64.73;28.53;;;;;;;;;;5052625;28;20715;-80
2024/01/01 09:29:09;;;;;;;86.93;42.87;;;;;;;;;;5052924;28;20223;-80
2024/01/01 09:31:36;;;;;;;86.00;37.03;;;;;;;;;;5052730;28;20270;-81
2024/01/01 09:34:06;;;;;;;67.87;28.73;;;;;;;;;;5052817;28;20252;-80
2024/01/01 09:36:34;;;;;;;174.33;52.33;;;;;;;;;;5053090;28;20216;-80
2024/01/01 09:39:02;;;;;;;281.73;68.07;;;;;;;;;;5052409;28;20922;-79
2024/01/01 09:41:29;;;;;;;122.73;48.97;;;;;;;;;;5052393;28;20223;-80
2024/01/01 09:43:56;;;;;;;194.57;51.33;;;;;;;;;;5053593;28;20298;-79
2024/01/01 09:46:25;;;;;;;258.43;59.07;;;;;;;;;;5052880;28;20212;-80
2024/01/01 09:48:51;;;;;;;132.77;47.10;;;;;;;;;;5052493;28;20231;-80
2024/01/01 09:51:19;;;;;;;150.90;67.33;;;;;;;;;;5051732;28;20246;-81
2024/01/01 09:53:46;;;;;;;100.07;45.57;;;;;;;;;;5052240;28;20244;-80
2024/01/01 09:56:13;;;;;;;103.70;49.00;;;;;;;;;;5050345;28;20228;-80
2024/01/01 09:58:44;;;;;;;130.13;53.20;;;;;;;;;;5051729;28;20224;-79
2024/01/01 10:01:13;;;;;;;284.90;94.20;;;;;;;;;;5050141;28;20223;-80
2024/01/01 10:03:40;;;;;;;308.83;101.63;;;;;;;;;;5051688;28;20234;-80
2024/01/01 10:06:09;;;;;;;303.90;98.47;;;;;;;;;;5052116;28;20219;-80
2024/01/01 10:08:36;;;;;;;407.07;106.90;;;;;;;;;;5051852;28;20790;-81
2024/01/01 10:11:16;;;;;;;351.20;98.50;;;;;;;;;;5051052;28;20235;-80
2024/01/01 10:13:43;;;;;;;336.73;107.77;;;;;;;;;;5050453;28;20235;-79
2024/01/01 10:16:23;;;;;;;228.57;85.90;;;;;;;;;;5053045;28;20228;-80
2024/01/01 10:18:56;;;;;;;161.93;61.37;;;;;;;;;;5051821;28;20708;-80
2024/01/01 10:21:27;;;;;;;161.00;48.13;;;;;;;;;;5051822;28;20228;-80
2024/01/01 10:23:56;;;;;;;93.17;40.27;;;;;;;;;;5051581;28;20232;-80
2024/01/01 10:26:29;;;;;;;150.60;48.37;;;;;;;;;;5052195;28;20223;-79
2024/01/01 10:28:56;;;;;;;234.87;59.97;;;;;;;;;;5034521;28;20225;-80
2024/01/01 10:31:24;;;;;;;101.27;41.93;;;;;;;;;;5038647;28;20227;-80
2024/01/01 10:33:51;;;;;;;97.67;39.07;;;;;;;;;;5051862;28;20301;-79
2024/01/01 10:36:19;;;;;;;94.80;46.77;;;;;;;;;;5051734;28;20232;-79
2024/01/01 10:38:48;;;;;;;52.57;25.50;;;;;;;;;;5046404;28;20307;-80
2024/01/01 10:41:17;;;;;;;65.77;27.10;;;;;;;;;;5037895;28;20421;-79
2024/01/01 10:43:46;;;;;;;50.23;21.17;;;;;;;;;;5051540;28;20263;-79
2024/01/01 10:46:14;;;;;;;44.10;19.77;;;;;;;;;;5049882;28;20750;-79
2024/01/01 10:48:42;;;;;;;51.20;20.13;;;;;;;;;;5052145;28;20342;-79
2024/01/01 10:51:12;;;;;;;41.73;19.60;;;;;;;;;;5051416;28;20235;-79
2024/01/01 10:54:21;;;;;;;45.47;20.80;;;;;;;;;;5052676;28;20231;-80
2024/01/01 10:56:54;;;;;;;48.23;20.40;;;;;;;;;;5050964;28;20572;-80
2024/01/01 10:59:24;;;;;;;52.43;20.60;;;;;;;;;;5030235;28;20275;-79
2024/01/01 11:01:52;;;;;;;45.00;20.50;;;;;;;;;;5030829;28;20267;-80
2024/01/01 11:04:20;;;;;;;48.90;20.67;;;;;;;;;;5039734;28;20223;-79
2024/01/01 11:06:47;;;;;;;47.63;21.53;;;;;;;;;;5051422;28;20212;-79
2024/01/01 11:09:20;;;;;;;49.50;20.97;;;;;;;;;;5051304;28;20231;-80
2024/01/01 11:11:50;;;;;;;51.43;21.53;;;;;;;;;;5039266;28;20228;-80
2024/01/01 11:14:27;;;;;;;54.43;23.43;;;;;;;;;;5041510;28;20852;-80
2024/01/01 11:16:56;;;;;;;56.93;22.60;;;;;;;;;;5051157;28;20235;-79
2024/01/01 11:19:42;;;;;;;45.07;21.00;;;;;;;;;;5049794;28;20707;-78
2024/01/01 11:22:20;;;;;;;51.97;20.00;;;;;;;;;;5049835;28;20219;-79
2024/01/01 11:24:47;;;;;;;53.50;22.10;;;;;;;;;;5050810;28;20710;-79
2024/01/01 11:27:24;;;;;;;54.20;24.13;;;;;;;;;;5050149;28;20224;-78
2024/01/01 11:29:51;;;;;;;59.87;22.93;;;;;;;;;;5050534;28;20233;-79
2024/01/01 11:32:19;;;;;;;49.37;21.27;;;;;;;;;;5050901;28;20239;-78
2024/01/01 11:35:08;;;;;;;57.17;23.67;;;;;;;;;;5050940;28;20227;-79
2024/01/01 11:37:37;;;;;;;57.70;24.83;;;;;;;;;;5050927;28;20243;-79
2024/01/01 11:40:05;;;;;;;51.57;22.90;;;;;;;;;;5048817;28;20216;-79
2024/01/01 11:42:33;;;;;;;56.03;22.90;;;;;;;;;;5050668;28;20274;-78
2024/01/01 11:45:06;;;;;;;50.70;21.80;;;;;;;;;;5050534;28;20235;-78
2024/01/01 11:47:34;;;;;;;62.43;24.30;;;;;;;;;;5050867;28;20240;-79
2024/01/01 11:50:02;;;;;;;55.43;23.30;;;;;;;;;;5044092;28;20244;-79
2024/01/01 11:52:29;;;;;;;57.47;23.43;;;;;;;;;;5050815;28;20235;-78
2024/01/01 11:54:57;;;;;;;58.40;25.83;;;;;;;;;;5049825;28;20315;-79
2024/01/01 11:57:24;;;;;;;62.07;25.37;;;;;;;;;;5050134;28;20252;-79
2024/01/01 11:59:52;;;;;;;57.60;22.67;;;;;;;;;;5050716;28;20219;-80
2024/01/01 12:02:19;;;;;;;51.50;21.63;;;;;;;;;;5050398;28;20246;-79
2024/01/01 12:04:48;;;;;;;54.83;23.87;;;;;;;;;;5033008;28;20224;-80
2024/01/01 12:07:30;;;;;;;62.87;24.83;;;;;;;;;;5048647;28;20228;-78
2024/01/01 12:10:10;;;;;;;59.97;22.97;;;;;;;;;;5050235;28;20235;-78
2024/01/01 12:12:39;;;;;;;49.67;22.77;;;;;;;;;;5050510;28;20240;-79
2024/01/01 12:15:06;;;;;;;59.83;22.53;;;;;;;;;;5051526;28;20236;-80
2024/01/01 12:17:40;;;;;;;55.27;22.27;;;;;;;;;;5053873;28;20235;-79
2024/01/01 12:20:09;;;;;;;56.40;25.07;;;;;;;;;;5053895;28;20219;-79
2024/01/01 12:22:37;;;;;;;59.50;25.83;;;;;;;;;;5053733;28;20235;-79
2024/01/01 12:25:05;;;;;;;58.70;24.73;;;;;;;;;;5052077;28;20705;-79
2024/01/01 12:27:32;;;;;;;57.83;25.67;;;;;;;;;;5053446;28;20236;-79
2024/01/01 12:30:00;;;;;;;71.43;27.77;;;;;;;;;;5053625;28;20683;-79
2024/01/01 12:32:27;;;;;;;65.00;26.87;;;;;;;;;;5053741;28;20244;-79
2024/01/01 12:34:54;;;;;;;67.47;26.00;;;;;;;;;;5053513;28;20231;-79
2024/01/01 12:37:22;;;;;;;65.40;25.13;;;;;;;;;;5053541;28;20224;-79
2024/01/01 12:39:50;;;;;;;57.53;25.77;;;;;;;;;;5053881;28;20220;-79
2024/01/01 12:42:17;;;;;;;60.80;23.80;;;;;;;;;;5053394;28;20235;-79
2024/01/01 12:44:44;;;;;;;57.43;24.83;;;;;;;;;;5053751;28;20232;-79
2024/01/01 12:47:14;;;;;;;52.27;22.37;;;;;;;;;;5053217;28;20259;-78
2024/01/01 12:49:41;;;;;;;54.83;23.20;;;;;;;;;;5054005;28;20239;-79
2024/01/01 12:52:08;;;;;;;57.33;24.00;;;;;;;;;;5053036;28;20244;-79
2024/01/01 12:54:35;;;;;;;55.43;23.03;;;;;;;;;;5042177;28;20243;-79
2024/01/01 12:57:02;;;;;;;52.23;22.50;;;;;;;;;;5033029;28;20236;-79
2024/01/01 12:59:29;;;;;;;53.07;22.73;;;;;;;;;;5052476;28;20212;-79
2024/01/01 13:01:56;;;;;;;55.30;22.53;;;;;;;;;;5052826;28;20232;-79
2024/01/01 13:04:25;;;;;;;57.00;23.20;;;;;;;;;;5053632;28;20699;-80
2024/01/01 13:06:54;;;;;;;50.50;21.60;;;;;;;;;;5052477;28;20293;-79
2024/01/01 13:09:22;;;;;;;49.90;19.27;;;;;;;;;;5052337;28;20228;-78
2024/01/01 13:11:50;;;;;;;44.93;19.13;;;;;;;;;;5052641;28;20232;-79
2024/01/01 13:14:17;;;;;;;48.80;19.87;;;;;;;;;;5040706;28;20660;-79
2024/01/01 13:16:47;;;;;;;54.27;19.53;;;;;;;;;;5044289;28;20234;-78
2024/01/01 13:19:15;;;;;;;50.47;21.73;;;;;;;;;;5036559;28;20300;-79
2024/01/01 13:21:43;;;;;;;57.63;22.87;;;;;;;;;;5053120;28;20247;-78
2024/01/01 13:24:10;;;;;;;49.97;21.30;;;;;;;;;;5052271;28;20298;-78
2024/01/01 13:26:37;;;;;;;51.90;20.33;;;;;;;;;;5051464;28;20235;-78
2024/01/01 13:29:04;;;;;;;45.67;19.63;;;;;;;;;;5052260;28;20712;-78
2024/01/01 13:31:31;;;;;;;47.20;18.80;;;;;;;;;;5052852;28;20231;-79
2024/01/01 13:33:58;;;;;;;43.37;19.63;;;;;;;;;;5052582;28;20326;-78
2024/01/01 13:36:26;;;;;;;48.03;19.73;;;;;;;;;;5052577;28;20228;-78
2024/01/01 13:38:53;;;;;;;51.17;21.27;;;;;;;;;;5052502;28;20224;-78
2024/01/01 13:41:20;;;;;;;43.27;17.90;;;;;;;;;;5052732;28;20818;-78
2024/01/01 13:43:47;;;;;;;50.67;19.87;;;;;;;;;;5052709;28;20242;-78
2024/01/01 13:46:14;;;;;;;44.03;17.80;;;;;;;;;;5051358;28;20762;-79
2024/01/01 13:48:42;;;;;;;45.80;18.40;;;;;;;;;;5051580;28;20323;-79
2024/01/01 13:51:12;;;;;;;41.97;18.83;;;;;;;;;;5052287;28;20269;-78
2024/01/01 13:53:39;;;;;;;43.93;19.07;;;;;;;;;;5052019;28;21064;-79
2024/01/01 13:56:06;;;;;;;56.27;22.73;;;;;;;;;;5052478;28;20222;-78
2024/01/01 13:58:34;;;;;;;43.90;19.53;;;;;;;;;;5052378;28;20681;-78
2024/01/01 14:01:03;;;;;;;48.57;20.03;;;;;;;;;;5052402;28;20231;-78
2024/01/01 14:03:30;;;;;;;54.13;19.83;;;;;;;;;;5051810;28;20227;-79
2024/01/01 14:05:58;;;;;;;43.67;18.93;;;;;;;;;;5051332;28;20228;-77
2024/01/01 14:08:27;;;;;;;52.40;21.00;;;;;;;;;;5051623;28;20230;-79
2024/01/01 14:10:54;;;;;;;50.97;20.57;;;;;;;;;;5051965;28;20220;-79
2024/01/01 14:13:23;;;;;;;37.97;18.30;;;;;;;;;;5052039;28;20271;-78
2024/01/01 14:15:51;;;;;;;49.33;20.70;;;;;;;;;;5051187;28;20286;-78
2024/01/01 14:18:21;;;;;;;41.70;17.43;;;;;;;;;;5051105;28;20231;-78
2024/01/01 14:20:49;;;;;;;34.63;14.97;;;;;;;;;;5051487;28;20267;-77